Terminal Aerodrome Forecast
Issued by NWS

Home | Current Version | Previous Version | Text Only | Print | Product List | Glossary On
Versions: 1 2 3 4 5 6 7 8 9 10 11 12 13 14 15 16 17 18 19 20 21
000
FTUS43 KAPX 210058 AAB
TAFAPN
TAF AMD
KAPN 210058Z 2101/2124 12006KT P6SM SCT150
      TEMPO 2101/2102 3SM BR SCT005
     FM210800 17004KT P6SM VCSH BKN060
     FM211000 18004KT 3SM BR VCSH BKN060
     FM211300 18004KT P6SM VCSH BKN080
     FM211800 16006KT P6SM SCT060
     FM212100 14007KT P6SM BKN150=

USA.gov is the U.S. government's official web portal to all federal, state and local government web resources and services.